Time;durP1;ratioP1;P1;durP2;ratioP2;P2;SDS_P1;SDS_P2;PMS_P1;PMS_P2;Temp;Humidity;BMP_temperature;BMP_pressure;BME280_temperature;BME280_humidity;BME280_pressure;Samples;Min_cycle;Max_cycle;Signal;HPM_P1;HPM_P2
2023/09/26 00:02:03;;;;;;;;;;;13.90;78.90;;;;;;5088383;28;20117;-66
2023/09/26 00:04:28;;;;;;;12.73;7.80;;;13.80;79.20;;;;;;5088855;28;19928;-65
2023/09/26 00:06:57;;;;;;;9.90;7.18;;;13.80;79.00;;;;;;5087408;28;20112;-65
2023/09/26 00:09:23;;;;;;;8.85;7.72;;;13.70;78.90;;;;;;5075312;28;20039;-65
2023/09/26 00:11:49;;;;;;;9.40;8.48;;;13.70;79.00;;;;;;5075026;28;20052;-66
2023/09/26 00:14:15;;;;;;;11.55;7.47;;;13.70;79.20;;;;;;5066754;28;20079;-65
2023/09/26 00:16:40;;;;;;;12.02;8.52;;;13.70;79.10;;;;;;5068096;28;20106;-65
2023/09/26 00:19:07;;;;;;;8.95;7.82;;;13.60;79.30;;;;;;5068219;28;20041;-65
2023/09/26 00:21:33;;;;;;;9.95;7.45;;;13.60;79.30;;;;;;5067915;28;20079;-65
2023/09/26 00:23:58;;;;;;;13.45;7.13;;;13.60;79.20;;;;;;5068829;28;20098;-66
2023/09/26 00:26:25;;;;;;;10.35;7.43;;;13.60;79.30;;;;;;5067957;28;20085;-65
2023/09/26 00:28:52;;;;;;;9.80;7.88;;;13.60;79.30;;;;;;5066934;28;20048;-65
2023/09/26 00:31:17;;;;;;;10.43;7.70;;;13.50;79.20;;;;;;5068032;28;20512;-65
2023/09/26 00:33:43;;;;;;;12.07;8.63;;;13.50;79.20;;;;;;5083199;28;20044;-65
2023/09/26 00:36:11;;;;;;;9.40;8.43;;;13.50;79.20;;;;;;5074506;28;20039;-65
2023/09/26 00:38:36;;;;;;;9.82;7.70;;;13.50;79.30;;;;;;5087735;28;20400;-65
2023/09/26 00:41:03;;;;;;;13.13;8.02;;;13.50;79.40;;;;;;5087693;28;20040;-65
2023/09/26 00:43:28;;;;;;;9.02;7.68;;;13.50;79.50;;;;;;5087648;28;20062;-65
2023/09/26 00:45:55;;;;;;;9.75;8.40;;;13.40;79.30;;;;;;5071818;28;20436;-66
2023/09/26 00:48:24;;;;;;;12.35;8.60;;;13.30;79.40;;;;;;5081151;28;20072;-66
2023/09/26 00:50:55;;;;;;;11.13;7.97;;;13.30;79.50;;;;;;5087458;28;20052;-65
2023/09/26 00:53:28;;;;;;;9.57;7.80;;;13.30;79.50;;;;;;5095568;28;20487;-66
2023/09/26 00:55:56;;;;;;;10.85;8.50;;;13.30;79.40;;;;;;5088557;28;20048;-66
2023/09/26 00:58:23;;;;;;;12.57;8.60;;;13.30;79.40;;;;;;5065822;28;20040;-65
2023/09/26 01:00:55;;;;;;;9.27;8.32;;;13.30;79.40;;;;;;5068377;28;20048;-66
2023/09/26 01:03:21;;;;;;;12.30;9.10;;;13.30;79.50;;;;;;5067095;28;20037;-65
2023/09/26 01:05:47;;;;;;;9.25;8.25;;;13.30;79.50;;;;;;5067811;28;20555;-65
2023/09/26 01:08:13;;;;;;;10.48;9.38;;;13.20;79.50;;;;;;5071417;28;20072;-66
2023/09/26 01:10:39;;;;;;;11.23;8.82;;;13.20;79.50;;;;;;5070363;28;20106;-65
2023/09/26 01:13:05;;;;;;;14.80;10.10;;;13.10;79.60;;;;;;5078034;28;20145;-65
2023/09/26 01:15:31;;;;;;;12.32;9.55;;;13.10;79.60;;;;;;5087513;28;20048;-65
2023/09/26 01:17:57;;;;;;;14.30;11.10;;;13.10;79.60;;;;;;5087973;28;20515;-65
2023/09/26 01:20:24;;;;;;;14.10;9.98;;;13.10;79.70;;;;;;5087774;28;20071;-65
2023/09/26 01:22:51;;;;;;;13.73;10.45;;;13.10;79.90;;;;;;5087637;28;20055;-65
2023/09/26 01:25:17;;;;;;;12.93;9.48;;;13.10;80.10;;;;;;5089522;28;20044;-66
2023/09/26 01:27:43;;;;;;;11.45;9.18;;;13.10;79.90;;;;;;5078287;28;20055;-65
2023/09/26 01:30:10;;;;;;;13.25;9.60;;;13.10;79.80;;;;;;5091162;28;20048;-65
2023/09/26 01:32:35;;;;;;;12.25;8.73;;;13.00;79.90;;;;;;5091616;28;20146;-65
2023/09/26 01:35:01;;;;;;;11.48;9.40;;;13.00;79.90;;;;;;5081423;28;20500;-66
2023/09/26 01:37:26;;;;;;;11.20;9.05;;;13.00;79.90;;;;;;5070967;28;20131;-65
2023/09/26 01:39:52;;;;;;;10.55;9.45;;;13.00;79.90;;;;;;5070886;28;20129;-65
2023/09/26 01:42:18;;;;;;;11.63;9.13;;;13.00;79.80;;;;;;5090300;28;20564;-65
2023/09/26 01:44:44;;;;;;;12.00;8.50;;;13.00;79.80;;;;;;5090865;28;20052;-65
2023/09/26 01:47:30;;;;;;;10.73;8.57;;;13.00;79.70;;;;;;5090879;28;20036;-65
2023/09/26 01:49:55;;;;;;;11.30;8.50;;;13.00;79.60;;;;;;5101082;28;20071;-65
2023/09/26 01:52:21;;;;;;;13.70;10.70;;;12.90;79.60;;;;;;5091644;28;20558;-65
2023/09/26 01:54:46;;;;;;;13.88;10.77;;;12.90;79.60;;;;;;5077777;28;20523;-65
2023/09/26 01:57:12;;;;;;;14.82;10.68;;;12.90;79.70;;;;;;5077352;28;20040;-65
2023/09/26 01:59:38;;;;;;;11.40;9.85;;;12.90;79.80;;;;;;5089988;28;20052;-65
2023/09/26 02:02:03;;;;;;;11.52;10.35;;;12.90;79.70;;;;;;5071099;28;20094;-64
2023/09/26 02:04:29;;;;;;;14.82;10.90;;;12.80;79.70;;;;;;5071277;28;20158;-65
2023/09/26 02:06:54;;;;;;;10.55;9.45;;;12.80;79.80;;;;;;5070122;28;20044;-65
2023/09/26 02:09:20;;;;;;;13.73;10.73;;;12.70;79.80;;;;;;5077040;28;20035;-66
2023/09/26 02:11:46;;;;;;;11.85;9.25;;;12.70;79.80;;;;;;5090943;28;20128;-65
2023/09/26 02:14:11;;;;;;;14.65;11.05;;;12.70;80.00;;;;;;5083603;28;20044;-65
2023/09/26 02:16:37;;;;;;;16.40;10.07;;;12.70;80.00;;;;;;5090854;28;20165;-66
2023/09/26 02:19:03;;;;;;;11.38;9.77;;;12.60;80.10;;;;;;5090496;28;20055;-65
2023/09/26 02:21:28;;;;;;;10.20;8.95;;;12.50;80.00;;;;;;5088551;28;20048;-65
2023/09/26 02:23:54;;;;;;;11.63;10.23;;;12.50;79.90;;;;;;5090413;28;20432;-65
2023/09/26 02:26:19;;;;;;;13.00;10.48;;;12.50;80.00;;;;;;5090691;28;20052;-65
2023/09/26 02:28:45;;;;;;;15.80;9.70;;;12.50;80.10;;;;;;5090448;28;20047;-65
2023/09/26 02:31:15;;;;;;;16.17;9.88;;;12.50;80.10;;;;;;5090385;28;20477;-65
2023/09/26 02:33:41;;;;;;;13.43;9.77;;;12.50;80.00;;;;;;5089897;28;20051;-65
2023/09/26 02:36:07;;;;;;;11.90;10.48;;;12.50;80.00;;;;;;5069921;28;20173;-65
2023/09/26 02:38:33;;;;;;;12.55;11.05;;;12.50;80.00;;;;;;5070245;28;20041;-64
2023/09/26 02:40:59;;;;;;;17.10;14.13;;;12.50;80.00;;;;;;5077944;28;20059;-66
2023/09/26 02:43:25;;;;;;;14.57;11.98;;;12.50;80.40;;;;;;5089519;28;20052;-65
2023/09/26 02:45:50;;;;;;;12.48;10.70;;;12.40;80.90;;;;;;5089187;28;20052;-66
2023/09/26 02:48:16;;;;;;;16.58;11.30;;;12.40;80.50;;;;;;5089980;28;20043;-65
2023/09/26 02:50:42;;;;;;;20.08;12.27;;;12.30;80.70;;;;;;5089821;28;20420;-65
2023/09/26 02:53:08;;;;;;;17.95;12.00;;;12.40;81.50;;;;;;5090069;28;20044;-65
2023/09/26 02:55:38;;;;;;;15.38;12.30;;;12.50;81.60;;;;;;5089966;28;20482;-64
2023/09/26 02:58:04;;;;;;;14.18;11.07;;;12.50;81.60;;;;;;5088705;28;20062;-65
2023/09/26 03:00:30;;;;;;;14.45;11.48;;;12.50;81.50;;;;;;5069394;28;20132;-65
2023/09/26 03:02:55;;;;;;;14.65;11.57;;;12.50;81.40;;;;;;5069177;28;20170;-65
2023/09/26 03:05:21;;;;;;;15.93;11.88;;;12.50;81.40;;;;;;5076478;28;20036;-65
2023/09/26 03:07:46;;;;;;;14.73;12.10;;;12.50;81.50;;;;;;5089811;28;20044;-65
2023/09/26 03:10:14;;;;;;;13.90;11.13;;;12.50;81.60;;;;;;5076278;28;20049;-64
2023/09/26 03:12:44;;;;;;;12.13;10.80;;;12.50;81.40;;;;;;5075454;28;20048;-65
2023/09/26 03:15:10;;;;;;;18.23;10.40;;;12.50;81.20;;;;;;5089471;28;20044;-65
2023/09/26 03:17:36;;;;;;;15.35;10.32;;;12.40;81.10;;;;;;5089916;28;20052;-65
2023/09/26 03:20:04;;;;;;;13.93;11.63;;;12.40;81.30;;;;;;5088912;28;20054;-66
2023/09/26 03:22:29;;;;;;;14.63;10.93;;;12.30;81.40;;;;;;5089179;28;20448;-66
2023/09/26 03:24:55;;;;;;;10.98;8.63;;;12.40;81.40;;;;;;5088490;28;20048;-66
2023/09/26 03:27:21;;;;;;;15.00;11.68;;;12.30;81.30;;;;;;5089361;28;20051;-66
2023/09/26 03:29:50;;;;;;;14.40;10.65;;;12.30;81.20;;;;;;5079500;28;20102;-65
2023/09/26 03:32:15;;;;;;;12.23;10.88;;;12.30;81.40;;;;;;5085540;28;20131;-65
2023/09/26 03:34:41;;;;;;;14.80;11.60;;;12.30;81.70;;;;;;5076177;28;20127;-66
2023/09/26 03:37:07;;;;;;;14.52;11.98;;;12.40;81.80;;;;;;5088869;28;20043;-64
2023/09/26 03:39:32;;;;;;;16.42;11.50;;;12.40;81.70;;;;;;5087545;28;20093;-66
2023/09/26 03:41:58;;;;;;;17.05;11.68;;;12.30;81.80;;;;;;5094891;28;20109;-65
2023/09/26 03:44:24;;;;;;;14.98;11.20;;;12.30;81.90;;;;;;5088986;28;20051;-65
2023/09/26 03:46:49;;;;;;;14.73;11.50;;;12.30;81.80;;;;;;5074905;28;20040;-65
2023/09/26 03:49:15;;;;;;;17.23;10.75;;;12.30;81.90;;;;;;5068247;28;20048;-65
2023/09/26 03:51:40;;;;;;;10.70;9.60;;;12.30;81.80;;;;;;5068384;28;20412;-65
2023/09/26 03:54:06;;;;;;;12.10;10.05;;;12.30;81.60;;;;;;5075937;28;20050;-65
2023/09/26 03:56:32;;;;;;;18.02;11.75;;;12.30;81.50;;;;;;5088899;28;20040;-64
2023/09/26 03:58:57;;;;;;;12.98;11.57;;;12.30;81.50;;;;;;5079951;28;20493;-65
2023/09/26 04:01:23;;;;;;;12.35;9.90;;;12.30;81.70;;;;;;5068445;28;20463;-65
2023/09/26 04:03:49;;;;;;;11.93;9.30;;;12.30;81.70;;;;;;5067476;28;20044;-65
2023/09/26 04:06:17;;;;;;;13.35;10.88;;;12.30;81.50;;;;;;5067441;28;20039;-65
2023/09/26 04:08:43;;;;;;;11.75;10.55;;;12.20;81.40;;;;;;5069940;28;20102;-65
2023/09/26 04:11:16;;;;;;;10.85;9.50;;;12.20;81.50;;;;;;5073981;28;20044;-65
2023/09/26 04:13:42;;;;;;;15.43;10.82;;;12.20;81.50;;;;;;5083625;28;20127;-65
2023/09/26 04:16:08;;;;;;;13.70;9.68;;;12.20;81.40;;;;;;5087921;28;20044;-65
2023/09/26 04:18:34;;;;;;;12.20;10.18;;;12.10;81.30;;;;;;5079304;28;20040;-65
2023/09/26 04:21:04;;;;;;;15.30;11.85;;;12.10;81.40;;;;;;5084627;28;20044;-65
2023/09/26 04:23:30;;;;;;;16.55;11.88;;;12.10;81.60;;;;;;5088813;28;20032;-66
2023/09/26 04:25:56;;;;;;;15.85;12.82;;;12.10;81.70;;;;;;5088375;28;20475;-65
2023/09/26 04:28:21;;;;;;;18.25;14.00;;;12.10;82.00;;;;;;5088148;28;20040;-65
2023/09/26 04:30:47;;;;;;;15.85;13.57;;;12.20;82.00;;;;;;5084541;28;20511;-66
2023/09/26 04:33:13;;;;;;;16.55;12.80;;;12.20;82.20;;;;;;5078379;28;20471;-65
2023/09/26 04:35:38;;;;;;;16.98;14.35;;;12.20;82.30;;;;;;5087771;28;20504;-65
2023/09/26 04:38:04;;;;;;;18.10;13.57;;;12.30;82.30;;;;;;5088442;28;20044;-66
2023/09/26 04:40:30;;;;;;;17.55;14.00;;;12.30;82.30;;;;;;5087869;28;20080;-65
2023/09/26 04:43:00;;;;;;;15.20;13.43;;;12.30;82.20;;;;;;5087839;28;20067;-65
2023/09/26 04:45:31;;;;;;;14.60;13.07;;;12.30;82.30;;;;;;5085431;28;20133;-65
2023/09/26 04:48:01;;;;;;;14.65;12.73;;;12.20;82.10;;;;;;5068469;28;20044;-66
2023/09/26 04:50:27;;;;;;;19.05;13.48;;;12.20;81.90;;;;;;5067744;28;20040;-65
2023/09/26 04:52:54;;;;;;;15.77;12.05;;;12.20;82.10;;;;;;5078215;28;20206;-65
2023/09/26 04:55:20;;;;;;;18.73;14.35;;;12.20;82.00;;;;;;5086796;28;20048;-65
2023/09/26 04:57:45;;;;;;;19.52;14.23;;;12.20;81.90;;;;;;5087995;28;20048;-65
2023/09/26 05:00:13;;;;;;;21.17;15.00;;;12.20;82.20;;;;;;5071092;28;20047;-66
2023/09/26 05:02:39;;;;;;;18.13;15.05;;;12.20;82.30;;;;;;5071773;28;20509;-65
2023/09/26 05:05:05;;;;;;;17.45;14.02;;;12.20;82.30;;;;;;5076408;28;20074;-66
2023/09/26 05:07:31;;;;;;;16.88;13.95;;;12.20;82.50;;;;;;5091887;28;20119;-66
2023/09/26 05:10:00;;;;;;;16.20;14.50;;;12.30;82.30;;;;;;5080514;28;20127;-65
2023/09/26 05:12:26;;;;;;;19.73;15.43;;;12.20;82.30;;;;;;5074709;28;20503;-67
2023/09/26 05:14:51;;;;;;;18.45;15.20;;;12.20;82.40;;;;;;5091794;28;20081;-66
2023/09/26 05:17:21;;;;;;;17.20;14.55;;;12.20;82.50;;;;;;5091850;28;20044;-65
2023/09/26 05:19:46;;;;;;;18.85;15.38;;;12.20;82.60;;;;;;5071310;28;20428;-66
2023/09/26 05:22:12;;;;;;;18.40;15.77;;;12.20;82.60;;;;;;5084060;28;20052;-66
2023/09/26 05:24:37;;;;;;;19.77;15.30;;;12.20;82.50;;;;;;5091387;28;20051;-64
2023/09/26 05:27:04;;;;;;;19.05;14.65;;;12.20;82.50;;;;;;5090672;28;20551;-63
2023/09/26 05:29:33;;;;;;;19.05;15.57;;;12.20;82.50;;;;;;5091600;28;20144;-63
2023/09/26 05:31:58;;;;;;;20.90;16.73;;;12.20;82.60;;;;;;5090832;28;20105;-64
2023/09/26 05:34:24;;;;;;;19.67;16.25;;;12.30;82.60;;;;;;5088536;28;20128;-64
2023/09/26 05:36:50;;;;;;;19.60;15.70;;;12.30;82.60;;;;;;5071802;28;20044;-64
2023/09/26 05:39:15;;;;;;;16.73;15.07;;;12.30;82.60;;;;;;5071140;28;20090;-64
2023/09/26 05:41:41;;;;;;;22.17;16.60;;;12.40;82.60;;;;;;5085494;28;20055;-65
2023/09/26 05:44:06;;;;;;;18.73;16.52;;;12.50;82.50;;;;;;5091110;28;20059;-63
2023/09/26 05:46:32;;;;;;;17.73;15.73;;;12.50;82.50;;;;;;5079761;28;20390;-65
2023/09/26 05:48:58;;;;;;;20.77;16.83;;;12.50;82.50;;;;;;5071017;28;20417;-64
2023/09/26 05:51:24;;;;;;;18.85;16.55;;;12.50;82.40;;;;;;5070755;28;20055;-64
2023/09/26 05:53:49;;;;;;;21.92;17.23;;;12.50;82.40;;;;;;5070729;28;20109;-64
2023/09/26 05:56:15;;;;;;;20.50;16.13;;;12.60;82.40;;;;;;5081997;28;20036;-64
2023/09/26 05:58:40;;;;;;;20.15;15.93;;;12.60;82.50;;;;;;5084385;28;20040;-64
2023/09/26 06:01:08;;;;;;;22.65;16.23;;;12.70;82.40;;;;;;5070942;28;20059;-65
2023/09/26 06:03:34;;;;;;;18.77;15.50;;;12.70;82.30;;;;;;5070666;28;20056;-64
2023/09/26 06:06:03;;;;;;;20.98;15.25;;;12.70;82.20;;;;;;5070841;28;20102;-64
2023/09/26 06:08:29;;;;;;;19.45;15.52;;;12.70;82.20;;;;;;5070587;28;20052;-64
2023/09/26 06:10:55;;;;;;;19.15;15.23;;;12.80;82.10;;;;;;5088268;28;20059;-63
2023/09/26 06:13:21;;;;;;;17.50;14.77;;;12.80;82.10;;;;;;5084142;28;20043;-64
2023/09/26 06:15:46;;;;;;;19.42;14.38;;;12.80;82.00;;;;;;5090482;28;20413;-64
2023/09/26 06:18:12;;;;;;;17.55;14.52;;;12.80;82.00;;;;;;5090884;28;20036;-64
2023/09/26 06:20:40;;;;;;;20.17;14.55;;;12.90;82.00;;;;;;5090002;28;20054;-64
2023/09/26 06:23:06;;;;;;;17.35;14.50;;;12.90;81.80;;;;;;5082753;28;20131;-64
2023/09/26 06:25:31;;;;;;;18.42;14.88;;;13.00;81.70;;;;;;5083959;28;20127;-64
2023/09/26 06:27:57;;;;;;;16.27;13.20;;;13.00;81.70;;;;;;5089094;28;20050;-64
2023/09/26 06:30:23;;;;;;;18.00;13.40;;;13.10;81.60;;;;;;5094552;28;20046;-64
2023/09/26 06:32:48;;;;;;;16.08;13.23;;;13.10;81.50;;;;;;5090219;28;20079;-65
2023/09/26 06:35:14;;;;;;;18.48;13.57;;;13.10;81.40;;;;;;5078324;28;20047;-64
2023/09/26 06:37:40;;;;;;;14.65;12.77;;;13.10;81.20;;;;;;5069526;28;20908;-65
2023/09/26 06:40:06;;;;;;;18.38;13.13;;;13.20;81.20;;;;;;5070524;28;20066;-64
2023/09/26 06:42:33;;;;;;;16.95;13.25;;;13.20;81.00;;;;;;5090011;28;20087;-64
2023/09/26 06:44:58;;;;;;;20.77;13.68;;;13.20;81.00;;;;;;5088927;28;20054;-65
2023/09/26 06:47:25;;;;;;;17.35;13.93;;;13.30;80.80;;;;;;5071944;28;20048;-64
2023/09/26 06:49:52;;;;;;;19.60;13.55;;;13.30;81.00;;;;;;5069468;28;20461;-65
2023/09/26 06:52:18;;;;;;;20.50;13.70;;;13.30;80.90;;;;;;5068092;28;20501;-64
2023/09/26 06:54:44;;;;;;;17.50;13.50;;;13.40;81.00;;;;;;5069948;28;20098;-64
2023/09/26 06:57:09;;;;;;;17.05;13.73;;;13.50;80.90;;;;;;5069776;28;20044;-64
2023/09/26 06:59:36;;;;;;;19.77;14.07;;;13.50;80.90;;;;;;5084018;28;20047;-64
2023/09/26 07:02:02;;;;;;;18.15;13.68;;;13.50;80.90;;;;;;5089291;28;20050;-65
2023/09/26 07:04:28;;;;;;;17.20;13.32;;;13.50;80.70;;;;;;5090237;28;20442;-64
2023/09/26 07:06:54;;;;;;;16.20;13.10;;;13.50;80.60;;;;;;5089370;28;20047;-64
2023/09/26 07:09:20;;;;;;;14.27;12.77;;;13.50;80.40;;;;;;5083625;28;20045;-64
2023/09/26 07:11:47;;;;;;;14.80;13.02;;;13.50;80.40;;;;;;5087293;28;20101;-64
2023/09/26 07:14:13;;;;;;;16.98;13.55;;;13.60;80.40;;;;;;5079866;28;20048;-66
2023/09/26 07:16:39;;;;;;;17.52;14.60;;;13.60;80.30;;;;;;5077946;28;20455;-64
2023/09/26 07:19:04;;;;;;;18.98;13.52;;;13.60;80.40;;;;;;5088453;28;20036;-64
2023/09/26 07:21:30;;;;;;;14.85;13.35;;;13.60;80.60;;;;;;5081104;28;20051;-64
2023/09/26 07:23:56;;;;;;;19.95;12.38;;;13.60;80.40;;;;;;5087449;28;20052;-64
2023/09/26 07:26:22;;;;;;;16.50;13.80;;;13.60;80.20;;;;;;5086643;28;20052;-64
2023/09/26 07:28:49;;;;;;;17.45;13.15;;;13.70;80.40;;;;;;5091264;27;20067;-64
2023/09/26 07:31:18;;;;;;;18.67;13.75;;;13.70;80.20;;;;;;5068965;28;20162;-64
2023/09/26 07:33:45;;;;;;;16.05;12.85;;;13.70;80.20;;;;;;5081141;28;20044;-65
2023/09/26 07:36:11;;;;;;;20.45;14.02;;;13.70;80.40;;;;;;5069231;28;20045;-64
2023/09/26 07:38:37;;;;;;;18.50;13.35;;;13.70;80.40;;;;;;5081855;28;20044;-64
2023/09/26 07:41:03;;;;;;;16.75;12.85;;;13.70;80.10;;;;;;5088497;28;20052;-65
2023/09/26 07:43:29;;;;;;;16.10;12.88;;;13.70;80.00;;;;;;5088670;28;20051;-65
2023/09/26 07:46:14;;;;;;;15.50;13.48;;;13.70;80.00;;;;;;5086982;28;20276;-64
2023/09/26 07:48:40;;;;;;;15.32;13.65;;;13.80;80.00;;;;;;5087502;28;20044;-64
2023/09/26 07:51:09;;;;;;;15.82;13.60;;;13.80;80.20;;;;;;5087583;28;20059;-64
2023/09/26 07:53:35;;;;;;;16.98;14.40;;;13.90;80.30;;;;;;5088949;28;20044;-65
2023/09/26 07:56:01;;;;;;;18.35;13.55;;;13.90;80.30;;;;;;5088838;28;20097;-64
2023/09/26 07:58:27;;;;;;;16.42;13.23;;;13.90;80.20;;;;;;5081652;28;20500;-64
2023/09/26 08:00:54;;;;;;;25.75;13.85;;;13.90;80.10;;;;;;5070853;28;20525;-64
2023/09/26 08:03:20;;;;;;;31.90;14.77;;;14.00;80.10;;;;;;5087875;28;20056;-64
2023/09/26 08:05:46;;;;;;;26.52;14.80;;;14.00;80.10;;;;;;5081892;28;20044;-64
2023/09/26 08:08:11;;;;;;;19.65;13.50;;;14.10;80.00;;;;;;5077825;28;20089;-65
2023/09/26 08:10:38;;;;;;;17.65;13.23;;;14.10;80.00;;;;;;5073369;28;20040;-65
2023/09/26 08:13:08;;;;;;;16.65;13.68;;;14.10;79.90;;;;;;5083646;28;20683;-64
2023/09/26 08:15:34;;;;;;;18.00;13.77;;;14.20;80.00;;;;;;5076389;28;20125;-64
2023/09/26 08:18:03;;;;;;;16.42;13.52;;;14.30;80.00;;;;;;5068168;28;20168;-65
2023/09/26 08:20:29;;;;;;;19.75;13.55;;;14.40;80.00;;;;;;5071142;28;20052;-65
2023/09/26 08:22:55;;;;;;;24.90;13.98;;;14.40;80.00;;;;;;5074160;28;20054;-65
2023/09/26 08:25:21;;;;;;;34.35;15.93;;;14.50;80.10;;;;;;5075559;28;20036;-64
2023/09/26 08:27:46;;;;;;;18.17;13.63;;;14.60;80.20;;;;;;5087082;28;20052;-64
2023/09/26 08:30:12;;;;;;;21.17;14.00;;;14.60;80.00;;;;;;5086686;28;20044;-65
2023/09/26 08:32:39;;;;;;;19.52;12.65;;;14.60;79.60;;;;;;5079651;28;20036;-64
2023/09/26 08:35:06;;;;;;;16.27;13.05;;;14.70;79.40;;;;;;5077521;28;20105;-65
2023/09/26 08:37:38;;;;;;;22.60;12.82;;;14.70;79.60;;;;;;5068273;28;20045;-64
2023/09/26 08:40:10;;;;;;;19.60;12.85;;;14.70;79.40;;;;;;5070640;28;20056;-64
2023/09/26 08:42:45;;;;;;;15.57;12.68;;;14.70;79.30;;;;;;5087768;28;20091;-64
2023/09/26 08:45:11;;;;;;;19.10;13.35;;;14.80;79.30;;;;;;5088289;28;20381;-65
2023/09/26 08:47:43;;;;;;;16.45;13.00;;;14.80;79.20;;;;;;5068352;28;20036;-65
2023/09/26 08:50:10;;;;;;;15.45;12.43;;;14.80;79.10;;;;;;5068240;28;20424;-64
2023/09/26 08:52:35;;;;;;;16.10;12.45;;;14.80;79.10;;;;;;5067533;28;20075;-64
2023/09/26 08:55:02;;;;;;;18.10;11.85;;;14.90;78.80;;;;;;5067866;28;20467;-64
2023/09/26 08:57:28;;;;;;;19.45;12.63;;;14.90;78.50;;;;;;5072896;28;20098;-64
2023/09/26 08:59:55;;;;;;;17.77;13.02;;;15.00;78.20;;;;;;5073437;28;20044;-64
2023/09/26 09:02:20;;;;;;;15.63;12.27;;;15.00;78.40;;;;;;5067887;28;20492;-65
2023/09/26 09:04:46;;;;;;;22.00;13.20;;;15.00;78.50;;;;;;5069290;28;20048;-64
2023/09/26 09:07:13;;;;;;;16.08;13.15;;;15.10;78.60;;;;;;5088342;28;20075;-65
2023/09/26 09:10:07;;;;;;;22.00;12.77;;;15.20;78.60;;;;;;5079948;28;20046;-65
2023/09/26 09:12:37;;;;;;;16.45;11.88;;;15.30;78.40;;;;;;5079980;28;20048;-65
2023/09/26 09:15:18;;;;;;;16.47;12.90;;;15.40;78.50;;;;;;5069389;28;20052;-65
2023/09/26 09:17:45;;;;;;;14.15;12.15;;;15.50;78.50;;;;;;5088050;28;20052;-65
2023/09/26 09:20:16;;;;;;;15.43;12.18;;;15.60;78.50;;;;;;5087806;28;20059;-65
2023/09/26 09:22:44;;;;;;;17.50;12.40;;;15.60;78.10;;;;;;5087688;28;20044;-65
2023/09/26 09:25:11;;;;;;;17.08;11.65;;;15.80;77.80;;;;;;5088202;28;20044;-65
2023/09/26 09:27:40;;;;;;;17.15;12.18;;;15.90;77.60;;;;;;5087434;28;20439;-64
2023/09/26 09:30:11;;;;;;;16.73;12.27;;;16.00;77.70;;;;;;5088143;28;20427;-64
2023/09/26 09:32:39;;;;;;;17.42;10.98;;;16.10;77.20;;;;;;5087838;28;20123;-64
2023/09/26 09:35:08;;;;;;;15.45;11.52;;;16.20;77.20;;;;;;5078073;28;20049;-65
2023/09/26 09:37:33;;;;;;;14.80;10.45;;;16.40;77.20;;;;;;5068056;28;20736;-65
2023/09/26 09:39:59;;;;;;;13.77;10.55;;;16.40;76.90;;;;;;5068000;28;20045;-64
2023/09/26 09:42:25;;;;;;;13.07;10.18;;;16.40;76.80;;;;;;5083010;28;20056;-65
2023/09/26 09:44:50;;;;;;;15.73;10.18;;;16.50;76.40;;;;;;5074110;28;20105;-65
2023/09/26 09:47:24;;;;;;;13.82;10.60;;;16.60;76.20;;;;;;5085335;28;20055;-64
2023/09/26 09:49:51;;;;;;;16.13;10.25;;;16.60;76.30;;;;;;5087170;28;20135;-65
2023/09/26 09:52:21;;;;;;;17.60;10.20;;;16.70;76.50;;;;;;5088682;28;20059;-65
2023/09/26 09:54:50;;;;;;;15.50;10.10;;;16.90;76.60;;;;;;5071023;28;20493;-65
2023/09/26 09:57:17;;;;;;;14.30;9.20;;;17.00;76.20;;;;;;5069332;28;20519;-65
2023/09/26 09:59:45;;;;;;;14.82;9.05;;;17.20;76.10;;;;;;5071218;28;20045;-65
2023/09/26 10:02:17;;;;;;;12.82;7.78;;;17.30;76.00;;;;;;5078892;28;20088;-65
2023/09/26 10:04:44;;;;;;;12.90;7.85;;;17.40;75.60;;;;;;5070715;28;20037;-65
2023/09/26 10:07:15;;;;;;;11.63;7.38;;;17.50;75.70;;;;;;5071127;28;20048;-65
2023/09/26 10:09:42;;;;;;;16.63;7.15;;;17.50;74.80;;;;;;5079850;28;20401;-65
2023/09/26 10:12:10;;;;;;;12.50;7.13;;;17.60;74.20;;;;;;5089301;28;20052;-65
2023/09/26 10:14:36;;;;;;;10.57;7.05;;;17.60;74.10;;;;;;5075507;28;20044;-65
2023/09/26 10:17:04;;;;;;;10.80;6.75;;;17.70;73.90;;;;;;5097978;28;20101;-65
2023/09/26 10:19:33;;;;;;;11.93;7.43;;;17.80;74.10;;;;;;5076421;28;20144;-64
2023/09/26 10:22:19;;;;;;;13.93;6.93;;;18.00;73.90;;;;;;5070165;28;20055;-64
2023/09/26 10:24:52;;;;;;;13.70;7.22;;;18.10;73.00;;;;;;5069522;28;20048;-64
2023/09/26 10:27:40;;;;;;;12.07;6.85;;;18.10;73.20;;;;;;5070191;28;20041;-65
2023/09/26 10:30:10;;;;;;;14.30;7.25;;;18.20;71.90;;;;;;5070533;28;20761;-64
2023/09/26 10:32:39;;;;;;;10.75;7.10;;;18.30;72.20;;;;;;5073330;28;20056;-65
2023/09/26 10:35:15;;;;;;;13.10;6.80;;;18.30;72.20;;;;;;5078975;28;20504;-64
2023/09/26 10:37:52;;;;;;;12.90;6.63;;;18.30;70.50;;;;;;5070254;28;20233;-65
2023/09/26 10:40:18;;;;;;;10.18;6.45;;;18.30;71.50;;;;;;5073727;28;20083;-64
2023/09/26 10:42:46;;;;;;;10.85;6.90;;;18.30;71.60;;;;;;5083413;28;20503;-64
2023/09/26 10:45:13;;;;;;;12.25;7.32;;;18.30;71.80;;;;;;5083105;28;20646;-65
2023/09/26 10:47:40;;;;;;;12.73;6.45;;;18.30;71.50;;;;;;5070047;28;20048;-65
2023/09/26 10:50:14;;;;;;;14.13;7.03;;;18.30;71.90;;;;;;5070051;28;20443;-65
2023/09/26 10:52:49;;;;;;;14.32;6.32;;;18.30;71.30;;;;;;5070021;28;20062;-65
2023/09/26 10:55:16;;;;;;;12.40;6.47;;;18.30;70.90;;;;;;5070193;28;20504;-65
2023/09/26 10:57:44;;;;;;;13.57;6.60;;;18.30;71.40;;;;;;5068426;28;20055;-65
2023/09/26 11:00:12;;;;;;;9.07;6.40;;;18.30;71.50;;;;;;5069601;28;20048;-65
2023/09/26 11:02:38;;;;;;;9.38;5.95;;;18.30;71.80;;;;;;5069720;28;20055;-65
2023/09/26 11:05:12;;;;;;;11.40;6.53;;;18.30;72.00;;;;;;5074405;28;20055;-65
2023/09/26 11:07:39;;;;;;;11.93;6.28;;;18.30;71.30;;;;;;5089978;28;20058;-65
2023/09/26 11:10:06;;;;;;;10.35;5.93;;;18.30;71.50;;;;;;5082620;28;20800;-65
2023/09/26 11:12:32;;;;;;;8.35;6.07;;;18.30;71.50;;;;;;5095216;28;20107;-65
2023/09/26 11:15:02;;;;;;;10.57;6.20;;;18.30;71.30;;;;;;5069459;28;20040;-64
2023/09/26 11:17:29;;;;;;;9.52;5.75;;;18.30;71.60;;;;;;5069639;28;20145;-64
2023/09/26 11:19:59;;;;;;;11.65;5.85;;;18.40;71.90;;;;;;5089549;28;20044;-65
2023/09/26 11:22:25;;;;;;;9.02;5.63;;;18.40;71.90;;;;;;5088550;28;20066;-65
2023/09/26 11:25:05;;;;;;;12.20;5.75;;;18.30;71.90;;;;;;5069172;28;20141;-65
2023/09/26 11:27:30;;;;;;;10.77;5.40;;;18.40;72.10;;;;;;5071290;28;20052;-64
2023/09/26 11:30:00;;;;;;;8.70;5.47;;;18.40;72.40;;;;;;5088436;28;20040;-65
2023/09/26 11:32:25;;;;;;;11.57;5.00;;;18.40;71.90;;;;;;5088796;28;20371;-65
2023/09/26 11:34:51;;;;;;;9.85;5.18;;;18.40;71.90;;;;;;5080435;28;20044;-64
2023/09/26 11:37:17;;;;;;;8.43;5.30;;;18.40;71.80;;;;;;5069163;28;20047;-64
2023/09/26 11:39:50;;;;;;;8.20;5.32;;;18.40;72.10;;;;;;5068873;28;20059;-64
2023/09/26 11:42:17;;;;;;;8.57;5.07;;;18.40;71.90;;;;;;5085862;28;20522;-65
2023/09/26 11:44:56;;;;;;;7.72;4.85;;;18.40;72.00;;;;;;5068623;28;20193;-64
2023/09/26 11:47:24;;;;;;;8.32;5.22;;;18.50;71.70;;;;;;5067962;28;20330;-65
2023/09/26 11:49:51;;;;;;;7.82;4.90;;;18.50;72.10;;;;;;5067562;28;20438;-64
2023/09/26 11:52:18;;;;;;;7.55;4.97;;;18.50;71.90;;;;;;5068451;28;20484;-64
2023/09/26 11:54:44;;;;;;;7.25;4.85;;;18.50;71.90;;;;;;5081232;28;20534;-65
2023/09/26 11:57:13;;;;;;;9.27;5.35;;;18.50;71.70;;;;;;5087518;28;20044;-64
2023/09/26 11:59:40;;;;;;;9.15;4.72;;;18.60;72.10;;;;;;5089069;28;20055;-64
2023/09/26 12:02:10;;;;;;;9.23;4.70;;;18.60;72.00;;;;;;5068883;28;20040;-65
2023/09/26 12:04:36;;;;;;;6.53;5.10;;;18.60;71.10;;;;;;5075849;28;20676;-65
2023/09/26 12:07:03;;;;;;;8.48;4.88;;;18.70;70.80;;;;;;5087436;28;20056;-64
2023/09/26 12:09:29;;;;;;;7.13;4.80;;;18.80;70.80;;;;;;5081102;28;20056;-65
2023/09/26 12:11:55;;;;;;;9.82;5.60;;;18.80;70.50;;;;;;5088345;28;20048;-64
2023/09/26 12:14:21;;;;;;;8.20;5.57;;;18.90;70.50;;;;;;5067042;28;20516;-64
2023/09/26 12:16:53;;;;;;;11.10;4.90;;;19.00;70.30;;;;;;5068508;28;20490;-64
2023/09/26 12:19:20;;;;;;;6.03;4.28;;;19.10;70.40;;;;;;5068478;28;20071;-64
2023/09/26 12:21:47;;;;;;;7.72;4.78;;;19.30;70.50;;;;;;5077541;28;20059;-65
2023/09/26 12:24:13;;;;;;;5.75;4.43;;;19.40;70.50;;;;;;5071946;28;20045;-65
2023/09/26 12:26:41;;;;;;;6.93;4.25;;;19.50;70.00;;;;;;5078585;28;20480;-65
2023/09/26 12:29:07;;;;;;;8.10;4.10;;;19.70;69.20;;;;;;5071450;28;20113;-65
2023/09/26 12:31:33;;;;;;;9.77;4.50;;;19.70;67.90;;;;;;5068537;28;20094;-65
2023/09/26 12:34:00;;;;;;;8.20;4.13;;;19.80;68.00;;;;;;5080811;28;20554;-65